createdAt,value
2018-07-23T00:02:01.693Z,75.86
2018-07-23T00:04:29.967Z,76.30
2018-07-23T00:06:58.280Z,76.97
2018-07-23T00:09:26.553Z,76.76
2018-07-23T00:11:54.860Z,76.83
2018-07-23T00:14:23.129Z,76.42
2018-07-23T00:16:51.432Z,76.32
2018-07-23T00:19:19.653Z,76.96
2018-07-23T00:21:47.904Z,76.43
2018-07-23T00:24:16.209Z,77.05
2018-07-23T00:26:44.450Z,77.39
2018-07-23T00:29:12.737Z,77.18
2018-07-23T00:31:41.041Z,77.02
2018-07-23T00:34:09.357Z,76.76
2018-07-23T00:36:38.616Z,76.71
2018-07-23T00:39:08.099Z,76.16
2018-07-23T00:41:36.488Z,76.51
2018-07-23T00:44:04.890Z,76.80
2018-07-23T00:46:33.269Z,76.77
2018-07-23T00:49:01.589Z,76.39
2018-07-23T00:51:29.904Z,76.47
2018-07-23T00:53:58.193Z,76.49
2018-07-23T00:56:26.445Z,75.97
2018-07-23T00:58:54.714Z,75.31
2018-07-23T01:01:22.969Z,76.03
2018-07-23T01:03:51.270Z,75.66
2018-07-23T01:06:19.517Z,75.90
2018-07-23T01:08:47.813Z,76.01
2018-07-23T01:11:16.100Z,76.26
2018-07-23T01:13:44.353Z,75.99
2018-07-23T01:16:12.636Z,75.60
2018-07-23T01:18:40.932Z,75.10
2018-07-23T01:21:09.200Z,75.59
2018-07-23T01:23:37.473Z,75.90
2018-07-23T01:26:06.306Z,75.69
2018-07-23T01:28:34.553Z,75.76
2018-07-23T01:31:02.857Z,74.82
2018-07-23T01:33:31.122Z,75.37
2018-07-23T01:35:59.413Z,75.58
2018-07-23T01:38:27.664Z,75.63
2018-07-23T01:40:55.950Z,75.81
2018-07-23T01:43:24.203Z,76.07
2018-07-23T01:45:52.500Z,76.14
2018-07-23T01:48:20.769Z,76.05
2018-07-23T01:50:49.061Z,75.52
2018-07-23T01:53:17.334Z,75.51
2018-07-23T01:55:45.624Z,75.63
2018-07-23T01:58:13.974Z,75.95
2018-07-23T02:00:42.326Z,75.89
2018-07-23T02:03:10.597Z,75.54
2018-07-23T02:05:38.892Z,75.53
2018-07-23T02:08:07.207Z,75.78
2018-07-23T02:10:35.505Z,75.15
2018-07-23T02:13:03.824Z,75.38
2018-07-23T02:15:32.104Z,75.24
2018-07-23T02:18:00.381Z,74.99
2018-07-23T02:20:28.626Z,75.13
2018-07-23T02:22:56.945Z,74.75
2018-07-23T02:25:25.225Z,74.89
2018-07-23T02:27:53.517Z,75.33
2018-07-23T02:30:21.777Z,75.72
2018-07-23T02:32:50.087Z,76.72
2018-07-23T02:35:18.338Z,76.04
2018-07-23T02:37:46.622Z,76.33
2018-07-23T02:40:14.885Z,76.87
2018-07-23T02:42:43.202Z,76.78
2018-07-23T02:45:11.457Z,78.18
2018-07-23T02:47:39.737Z,78.05
2018-07-23T02:50:08.011Z,78.60
2018-07-23T02:52:37.318Z,77.81
2018-07-23T02:55:05.582Z,78.34
2018-07-23T02:57:33.846Z,77.82
2018-07-23T03:00:02.127Z,78.03
2018-07-23T03:02:30.367Z,77.29
2018-07-23T03:04:58.681Z,77.87
2018-07-23T03:07:26.937Z,77.17
2018-07-23T03:09:55.225Z,77.76
2018-07-23T03:12:23.488Z,77.57
2018-07-23T03:14:52.777Z,77.92
2018-07-23T03:17:21.166Z,77.56
2018-07-23T03:19:49.440Z,77.82
2018-07-23T03:22:17.697Z,78.15
2018-07-23T03:24:46.361Z,79.04
2018-07-23T03:27:14.613Z,78.77
2018-07-23T03:29:42.905Z,79.21
2018-07-23T03:32:11.177Z,79.24
2018-07-23T03:34:39.464Z,79.09
2018-07-23T03:37:07.723Z,78.35
2018-07-23T03:39:38.039Z,78.46
2018-07-23T03:42:06.497Z,78.39
2018-07-23T03:44:34.785Z,78.73
2018-07-23T03:47:03.045Z,78.75
2018-07-23T03:49:31.357Z,79.07
2018-07-23T03:51:59.606Z,78.42
2018-07-23T03:54:28.896Z,78.82
2018-07-23T03:56:57.205Z,78.40
2018-07-23T03:59:25.467Z,78.45
2018-07-23T04:01:53.746Z,77.62
2018-07-23T04:04:22.013Z,77.71
2018-07-23T04:06:50.332Z,78.12
2018-07-23T04:09:18.613Z,78.54
2018-07-23T04:11:46.901Z,78.85
2018-07-23T04:14:15.645Z,78.50
2018-07-23T04:16:43.918Z,79.27
2018-07-23T04:19:12.181Z,78.52
2018-07-23T04:21:40.481Z,78.76
2018-07-23T04:24:08.769Z,78.53
2018-07-23T04:26:37.064Z,78.02
2018-07-23T04:29:05.510Z,77.54
2018-07-23T04:31:33.907Z,77.04
2018-07-23T04:34:04.215Z,77.23
2018-07-23T04:36:32.492Z,77.40
2018-07-23T04:39:00.750Z,76.67
2018-07-23T04:41:29.060Z,76.44
2018-07-23T04:43:57.323Z,76.55
2018-07-23T04:46:25.609Z,76.25
2018-07-23T04:48:53.906Z,77.00
2018-07-23T04:51:22.189Z,76.40
2018-07-23T04:53:50.460Z,76.72
2018-07-23T04:56:18.716Z,76.32
2018-07-23T04:58:46.997Z,75.57
2018-07-23T05:01:15.279Z,74.86
2018-07-23T05:03:43.600Z,75.36
2018-07-23T05:06:11.969Z,73.94
2018-07-23T05:08:40.319Z,74.20
2018-07-23T05:11:09.533Z,73.36
2018-07-23T05:13:37.829Z,73.01
2018-07-23T05:16:06.191Z,73.26
2018-07-23T05:18:34.392Z,72.54
2018-07-23T05:21:02.647Z,71.92
2018-07-23T05:23:31.020Z,73.61
2018-07-23T05:25:59.289Z,73.92
2018-07-23T05:28:27.569Z,73.29
2018-07-23T05:30:55.821Z,73.11
2018-07-23T05:33:24.088Z,72.52
2018-07-23T05:35:52.372Z,70.88
2018-07-23T05:38:20.636Z,70.23
2018-07-23T05:40:48.937Z,70.20
2018-07-23T05:43:17.193Z,70.87
2018-07-23T05:45:45.470Z,71.16
2018-07-23T05:48:13.786Z,71.45
2018-07-23T05:50:42.073Z,70.09
2018-07-23T05:53:11.361Z,69.60
2018-07-23T05:55:39.636Z,69.33
2018-07-23T05:58:07.892Z,68.90
2018-07-23T06:00:40.125Z,67.78
2018-07-23T06:03:09.589Z,67.04
2018-07-23T06:05:37.912Z,68.74
2018-07-23T06:08:06.230Z,69.82
2018-07-23T06:10:34.526Z,69.51
2018-07-23T06:13:02.848Z,70.01
2018-07-23T06:15:31.574Z,68.66
2018-07-23T06:17:59.935Z,67.93
2018-07-23T06:20:28.291Z,69.05
2018-07-23T06:22:56.701Z,69.56
2018-07-23T06:25:25.027Z,68.39
2018-07-23T06:27:54.757Z,68.43
2018-07-23T06:30:23.079Z,68.39
2018-07-23T06:32:51.343Z,68.62
2018-07-23T06:35:19.645Z,67.96
2018-07-23T06:37:47.954Z,67.20
2018-07-23T06:40:18.229Z,66.68
2018-07-23T06:42:46.512Z,63.87
2018-07-23T06:45:14.785Z,62.85
2018-07-23T06:47:43.061Z,61.49
2018-07-23T06:50:11.329Z,60.56
2018-07-23T06:52:39.621Z,60.41
2018-07-23T06:55:08.915Z,61.28
2018-07-23T06:57:37.201Z,63.72
2018-07-23T07:00:06.109Z,62.36
2018-07-23T07:02:34.416Z,62.53
2018-07-23T07:05:02.845Z,62.71
2018-07-23T07:07:32.207Z,59.28
2018-07-23T07:10:02.567Z,57.99
2018-07-23T07:12:30.999Z,58.18
2018-07-23T07:14:59.255Z,61.28
2018-07-23T07:17:27.759Z,61.95
2018-07-23T07:19:56.076Z,61.06
2018-07-23T07:22:26.373Z,59.74
2018-07-23T07:24:54.681Z,60.42
2018-07-23T07:27:24.287Z,58.64
2018-07-23T07:29:52.533Z,56.41
2018-07-23T07:32:20.778Z,55.17
2018-07-23T07:34:51.235Z,54.18
2018-07-23T07:37:19.437Z,57.49
2018-07-23T07:39:48.745Z,55.94
2018-07-23T07:42:17.023Z,57.46
2018-07-23T07:44:47.380Z,57.02
2018-07-23T07:47:15.644Z,55.92
2018-07-23T07:49:43.916Z,53.34
2018-07-23T07:52:13.056Z,56.13
2018-07-23T07:54:41.382Z,57.30
2018-07-23T07:57:10.640Z,57.42
2018-07-23T07:59:39.997Z,55.66
2018-07-23T08:02:08.341Z,55.79
2018-07-23T08:04:36.633Z,53.88
2018-07-23T08:07:04.994Z,53.57
2018-07-23T08:09:33.273Z,53.16
2018-07-23T08:12:02.590Z,55.61
2018-07-23T08:14:30.861Z,53.71
2018-07-23T08:16:59.124Z,52.90
2018-07-23T08:19:27.401Z,51.04
2018-07-23T08:21:55.660Z,52.34
2018-07-23T08:24:23.961Z,52.72
2018-07-23T08:26:52.236Z,49.75
2018-07-23T08:29:20.532Z,49.87
2018-07-23T08:31:48.954Z,48.42
2018-07-23T08:34:18.169Z,46.25
2018-07-23T08:36:46.473Z,46.46
2018-07-23T08:39:14.748Z,48.61
2018-07-23T08:41:43.059Z,46.96
2018-07-23T08:44:11.381Z,47.60
2018-07-23T08:46:40.764Z,46.57
2018-07-23T08:49:09.008Z,48.09
2018-07-23T08:51:38.485Z,50.05
2018-07-23T08:54:07.393Z,49.67
2018-07-23T08:56:37.788Z,48.96
2018-07-23T08:59:06.029Z,47.80
2018-07-23T09:01:34.313Z,47.10
2018-07-23T09:04:02.577Z,47.07
2018-07-23T09:06:30.852Z,47.99
2018-07-23T09:08:59.105Z,49.53
2018-07-23T09:11:27.397Z,50.59
2018-07-23T09:13:55.649Z,50.23
2018-07-23T09:16:23.945Z,46.45
2018-07-23T09:18:52.190Z,44.03
2018-07-23T09:21:20.509Z,41.49
2018-07-23T09:23:48.823Z,42.51
2018-07-23T09:26:18.038Z,46.50
2018-07-23T09:28:48.318Z,48.53
2018-07-23T09:31:16.581Z,49.54
2018-07-23T09:33:44.858Z,48.95
2018-07-23T09:36:13.123Z,47.92
2018-07-23T09:38:42.505Z,45.54
2018-07-23T09:41:10.783Z,44.53
2018-07-23T09:43:39.072Z,45.53
2018-07-23T09:46:07.329Z,47.05
2018-07-23T09:48:35.687Z,46.67
2018-07-23T09:51:03.929Z,46.44
2018-07-23T09:53:32.197Z,47.21
2018-07-23T09:56:01.438Z,44.97
2018-07-23T09:58:29.742Z,43.81
2018-07-23T10:01:04.345Z,44.86
2018-07-23T10:03:33.088Z,46.13
2018-07-23T10:06:01.225Z,44.48
2018-07-23T10:08:29.545Z,44.67
2018-07-23T10:10:57.858Z,44.37
2018-07-23T10:13:27.146Z,44.46
2018-07-23T10:15:55.397Z,45.95
2018-07-23T10:18:24.758Z,46.29
2018-07-23T10:20:53.013Z,45.72
2018-07-23T10:23:21.369Z,45.42
2018-07-23T10:25:49.637Z,44.44
2018-07-23T10:28:17.902Z,45.34
2018-07-23T10:30:47.168Z,45.69
2018-07-23T10:33:15.453Z,45.76
2018-07-23T10:35:43.742Z,46.08
2018-07-23T10:38:12.019Z,47.00
2018-07-23T10:40:41.369Z,47.12
2018-07-23T10:43:09.700Z,45.14
2018-07-23T10:45:37.983Z,45.06
2018-07-23T10:48:06.613Z,45.47
2018-07-23T10:50:34.893Z,44.95
2018-07-23T10:53:03.197Z,44.08
2018-07-23T10:55:32.551Z,45.66
2018-07-23T10:58:01.677Z,45.15
2018-07-23T11:00:29.997Z,45.97
2018-07-23T11:02:58.248Z,46.00
2018-07-23T11:05:26.537Z,47.64
2018-07-23T11:07:54.805Z,46.73
2018-07-23T11:10:23.197Z,45.89
2018-07-23T11:12:51.554Z,45.10
2018-07-23T11:15:19.791Z,45.63
2018-07-23T11:17:48.053Z,45.93
2018-07-23T11:20:16.327Z,45.75
2018-07-23T11:22:44.637Z,46.55
2018-07-23T11:25:38.595Z,45.10
2018-07-23T11:27:41.246Z,44.78
2018-07-23T11:30:09.538Z,45.21
2018-07-23T11:32:37.829Z,45.67
2018-07-23T11:35:06.481Z,45.09
2018-07-23T11:37:34.767Z,43.65
2018-07-23T11:40:03.274Z,43.61
2018-07-23T11:42:32.761Z,43.45
2018-07-23T11:45:01.002Z,45.03
2018-07-23T11:47:29.293Z,43.34
2018-07-23T11:49:57.556Z,42.96
2018-07-23T11:52:26.117Z,43.97
2018-07-23T11:54:54.405Z,43.39
2018-07-23T11:57:22.680Z,41.92
2018-07-23T11:59:50.945Z,42.59
2018-07-23T12:02:19.225Z,42.98
2018-07-23T12:04:47.529Z,44.97
2018-07-23T12:07:15.812Z,45.65
2018-07-23T12:09:44.099Z,44.54
2018-07-23T12:12:12.366Z,42.59
2018-07-23T12:14:41.784Z,44.37
2018-07-23T12:17:10.159Z,43.24
2018-07-23T12:19:38.451Z,45.14
2018-07-23T12:22:06.765Z,45.30
2018-07-23T12:24:35.080Z,44.33
2018-07-23T12:27:03.329Z,43.94
2018-07-23T12:29:32.683Z,44.41
2018-07-23T12:32:01.933Z,44.63
2018-07-23T12:34:30.224Z,45.92
2018-07-23T12:36:58.474Z,43.91
2018-07-23T12:39:26.759Z,43.36
2018-07-23T12:41:55.023Z,42.55
2018-07-23T12:44:23.361Z,41.60
2018-07-23T12:46:51.606Z,40.71
2018-07-23T12:49:19.898Z,40.24
2018-07-23T12:51:48.160Z,40.19
2018-07-23T12:54:17.506Z,42.08
2018-07-23T12:56:45.769Z,43.70
2018-07-23T12:59:15.117Z,41.92
2018-07-23T13:01:44.461Z,41.26
2018-07-23T13:04:14.805Z,39.49
2018-07-23T13:06:43.670Z,38.04
2018-07-23T13:09:12.986Z,39.65
2018-07-23T13:11:41.261Z,41.44
2018-07-23T13:14:09.740Z,42.06
2018-07-23T13:16:38.024Z,39.97
2018-07-23T13:19:06.381Z,39.43
2018-07-23T13:21:34.708Z,40.02
2018-07-23T13:24:03.171Z,40.19
2018-07-23T13:26:31.477Z,40.81
2018-07-23T13:28:59.716Z,41.25
2018-07-23T13:31:28.050Z,40.57
2018-07-23T13:33:56.317Z,39.42
2018-07-23T13:36:25.669Z,39.39
2018-07-23T13:38:54.242Z,37.50
2018-07-23T13:41:22.574Z,39.18
2018-07-23T13:43:52.929Z,38.90
2018-07-23T13:46:21.255Z,37.61
2018-07-23T13:48:49.501Z,37.05
2018-07-23T13:51:17.841Z,37.65
2018-07-23T13:53:49.637Z,36.66
2018-07-23T13:56:18.206Z,33.61
2018-07-23T13:58:46.481Z,30.85
2018-07-23T14:01:14.877Z,28.17
2018-07-23T14:03:43.222Z,33.91
2018-07-23T14:21:40.500Z,15.11
2018-07-23T14:24:08.857Z,20.02
2018-07-23T14:26:37.109Z,23.64
2018-07-23T14:29:05.921Z,22.07
2018-07-23T14:31:34.178Z,20.08
2018-07-23T14:34:02.515Z,22.84
2018-07-23T14:36:30.789Z,18.98
2018-07-23T14:39:00.189Z,18.22
2018-07-23T14:41:28.462Z,19.12
2018-07-23T14:43:56.793Z,18.78
2018-07-23T14:46:25.265Z,14.93
2018-07-23T14:48:53.541Z,13.27
2018-07-23T14:51:21.930Z,13.22
2018-07-23T14:53:50.263Z,15.20
2018-07-23T14:56:18.529Z,14.03
2018-07-23T14:58:46.817Z,13.35
2018-07-23T15:01:15.079Z,15.11
2018-07-23T15:03:43.616Z,15.52
2018-07-23T15:06:12.225Z,18.67
2018-07-23T15:08:40.571Z,14.90
2018-07-23T15:11:09.122Z,14.35
2018-07-23T15:13:37.433Z,14.92
2018-07-23T15:16:06.067Z,14.76
2018-07-23T15:18:34.628Z,22.44
2018-07-23T15:21:03.079Z,22.24
2018-07-23T15:23:31.325Z,18.49
2018-07-23T15:25:59.802Z,16.14
2018-07-23T15:28:28.053Z,14.42
2018-07-23T15:30:56.405Z,14.90
2018-07-23T15:33:25.681Z,13.62
2018-07-23T15:35:53.967Z,12.29
2018-07-23T15:38:22.372Z,14.58
2018-07-23T15:40:50.661Z,22.09
2018-07-23T15:43:18.940Z,19.88
2018-07-23T15:45:47.603Z,19.06
2018-07-23T15:48:15.576Z,21.33
2018-07-23T15:50:44.030Z,20.40
2018-07-23T15:53:12.288Z,16.99
2018-07-23T15:55:40.571Z,16.59
2018-07-23T15:58:09.881Z,16.04
2018-07-23T16:00:39.245Z,16.16
2018-07-23T16:03:07.569Z,18.42
2018-07-23T16:05:36.821Z,19.95
2018-07-23T16:08:08.877Z,17.74
2018-07-23T16:10:37.150Z,15.08
2018-07-23T16:13:05.436Z,15.81
2018-07-23T16:15:33.693Z,15.77
2018-07-23T16:18:01.981Z,17.64
2018-07-23T16:20:30.241Z,17.44
2018-07-23T16:22:58.529Z,16.12
2018-07-23T16:25:26.813Z,18.59
2018-07-23T16:27:55.125Z,18.21
2018-07-23T16:30:23.413Z,17.45
2018-07-23T16:32:51.723Z,17.01
2018-07-23T16:35:20.973Z,21.50
2018-07-23T16:37:49.253Z,19.46
2018-07-23T16:40:17.515Z,22.33
2018-07-23T16:42:45.811Z,22.92
2018-07-23T16:45:14.060Z,22.57
2018-07-23T16:47:42.362Z,19.64
2018-07-23T16:50:10.620Z,19.69
2018-07-23T16:52:39.953Z,20.19
2018-07-23T16:55:08.400Z,19.53
2018-07-23T16:57:42.461Z,21.51
2018-07-23T17:00:10.909Z,22.35
2018-07-23T17:02:40.516Z,22.15
2018-07-23T17:05:08.789Z,21.86
2018-07-23T17:07:37.065Z,25.83
2018-07-23T17:10:05.418Z,24.21
2018-07-23T17:12:33.819Z,25.30
2018-07-23T17:15:02.347Z,23.60
2018-07-23T17:17:30.589Z,24.20
2018-07-23T17:19:58.892Z,22.01
2018-07-23T17:22:27.200Z,23.56
2018-07-23T17:24:55.522Z,24.66
2018-07-23T17:27:23.819Z,24.93
2018-07-23T17:29:52.152Z,30.62
2018-07-23T17:32:20.422Z,36.09
2018-07-23T17:34:48.717Z,37.43
2018-07-23T17:37:18.220Z,38.85
2018-07-23T17:39:46.500Z,39.17
2018-07-23T17:42:14.749Z,39.51
2018-07-23T17:44:44.104Z,40.57
2018-07-23T17:47:12.364Z,40.65
2018-07-23T17:49:40.626Z,40.70
2018-07-23T17:52:09.033Z,41.31
2018-07-23T17:54:37.325Z,41.44
2018-07-23T17:57:05.691Z,41.43
2018-07-23T17:59:33.916Z,42.69
2018-07-23T18:02:03.292Z,42.58
2018-07-23T18:04:32.740Z,42.35
2018-07-23T18:07:01.029Z,42.22
2018-07-23T18:09:29.769Z,43.07
2018-07-23T18:11:58.112Z,42.47
2018-07-23T18:14:27.387Z,42.88
2018-07-23T18:16:56.713Z,42.78
2018-07-23T18:19:24.971Z,43.80
2018-07-23T18:21:53.240Z,43.97
2018-07-23T18:24:21.553Z,44.57
2018-07-23T18:26:49.836Z,44.79
2018-07-23T18:29:18.136Z,44.98
2018-07-23T18:31:46.477Z,44.46
2018-07-23T18:34:14.714Z,45.14
2018-07-23T18:36:42.980Z,44.99
2018-07-23T18:39:12.990Z,44.96
2018-07-23T18:41:41.855Z,45.47
2018-07-23T18:44:10.411Z,45.02
2018-07-23T18:46:38.817Z,45.70
2018-07-23T18:49:30.150Z,45.56
2018-07-23T18:51:58.467Z,45.99
2018-07-23T18:54:27.885Z,46.35
2018-07-23T18:56:58.382Z,46.94
2018-07-23T18:59:26.657Z,46.71
2018-07-23T19:01:55.832Z,46.38
2018-07-23T19:04:24.133Z,46.04
2018-07-23T19:06:52.415Z,46.54
2018-07-23T19:09:22.689Z,46.99
2018-07-23T19:11:52.517Z,47.81
2018-07-23T19:14:21.086Z,47.55
2018-07-23T19:16:50.257Z,48.12
2018-07-23T19:19:18.558Z,48.21
2018-07-23T19:21:46.817Z,48.06
2018-07-23T19:24:15.146Z,48.04
2018-07-23T19:26:43.461Z,48.71
2018-07-23T19:29:11.733Z,48.51
2018-07-23T19:31:39.981Z,49.18
2018-07-23T19:34:08.321Z,49.50
2018-07-23T19:36:36.602Z,48.77
2018-07-23T19:39:08.817Z,48.44
2018-07-23T19:41:37.528Z,48.85
2018-07-23T19:44:05.962Z,48.62
2018-07-23T19:46:34.260Z,48.61
2018-07-23T19:49:02.537Z,49.24
2018-07-23T19:51:30.816Z,49.25
2018-07-23T19:53:59.070Z,49.13
2018-07-23T19:56:27.346Z,49.20
2018-07-23T19:58:55.601Z,49.38
2018-07-23T20:01:23.872Z,49.20
2018-07-23T20:03:52.118Z,49.52
2018-07-23T20:06:23.793Z,49.69
2018-07-23T20:08:53.060Z,49.90
2018-07-23T20:11:23.109Z,50.23
2018-07-23T20:13:51.657Z,50.05
2018-07-23T20:16:20.072Z,50.27
2018-07-23T20:18:48.341Z,50.72
2018-07-23T20:21:16.636Z,50.52
2018-07-23T20:23:45.273Z,50.76
2018-07-23T20:26:13.785Z,50.88
2018-07-23T20:28:42.031Z,50.42
2018-07-23T20:31:10.322Z,51.02
2018-07-23T20:33:38.642Z,50.72
2018-07-23T20:36:07.061Z,51.22
2018-07-23T20:38:35.781Z,51.55
2018-07-23T20:41:04.110Z,52.00
2018-07-23T20:43:33.657Z,52.13
2018-07-23T20:46:03.241Z,52.51
2018-07-23T20:48:31.605Z,53.27
2018-07-23T20:50:59.949Z,52.79
2018-07-23T20:53:28.218Z,53.33
2018-07-23T20:55:56.469Z,53.42
2018-07-23T20:58:24.769Z,53.62
2018-07-23T21:00:53.013Z,54.46
2018-07-23T21:03:21.754Z,54.51
2018-07-23T21:05:50.013Z,54.64
2018-07-23T21:08:18.293Z,54.87
2018-07-23T21:10:46.557Z,55.78
2018-07-23T21:13:14.833Z,55.84
2018-07-23T21:15:43.085Z,56.46
2018-07-23T21:18:12.504Z,56.16
2018-07-23T21:20:40.873Z,57.18
2018-07-23T21:23:09.194Z,57.32
2018-07-23T21:25:37.468Z,57.44
2018-07-23T21:28:05.796Z,57.75
2018-07-23T21:30:34.076Z,58.35
2018-07-23T21:33:02.345Z,58.29
2018-07-23T21:35:30.694Z,58.62
2018-07-23T21:37:58.956Z,58.62
2018-07-23T21:40:27.356Z,59.31
2018-07-23T21:42:55.604Z,59.44
2018-07-23T21:45:23.885Z,59.36
2018-07-23T21:47:52.129Z,59.32
2018-07-23T21:50:21.476Z,60.56
2018-07-23T21:52:49.718Z,61.14
2018-07-23T21:55:18.019Z,61.18
2018-07-23T21:57:46.255Z,61.35
2018-07-23T22:00:15.536Z,61.67
2018-07-23T22:02:44.878Z,61.58
2018-07-23T22:05:14.253Z,62.19
2018-07-23T22:07:42.497Z,61.71
2018-07-23T22:10:11.106Z,62.31
2018-07-23T22:12:39.370Z,62.62
2018-07-23T22:15:09.797Z,63.24
2018-07-23T22:17:38.149Z,63.11
2018-07-23T22:20:07.189Z,63.09
2018-07-23T22:22:35.461Z,62.97
2018-07-23T22:25:03.974Z,63.27
2018-07-23T22:27:32.490Z,63.02
2018-07-23T22:30:00.781Z,63.64
2018-07-23T22:32:29.106Z,63.67
2018-07-23T22:34:57.357Z,64.02
2018-07-23T22:37:25.637Z,63.94
2018-07-23T22:39:54.962Z,64.59
2018-07-23T22:42:25.493Z,64.21
2018-07-23T22:44:53.737Z,64.66
2018-07-23T22:47:22.033Z,64.70
2018-07-23T22:49:50.356Z,64.58
2018-07-23T22:52:18.661Z,65.09
2018-07-23T22:54:47.007Z,64.96
2018-07-23T22:57:15.288Z,65.47
2018-07-23T22:59:43.533Z,65.07
2018-07-23T23:02:11.798Z,65.24
2018-07-23T23:04:40.161Z,65.73
2018-07-23T23:07:08.441Z,65.07
2018-07-23T23:09:37.763Z,65.22
2018-07-23T23:12:06.061Z,65.48
2018-07-23T23:14:34.321Z,65.80
2018-07-23T23:18:05.200Z,65.61
2018-07-23T23:20:33.616Z,65.95
2018-07-23T23:23:01.953Z,65.43
2018-07-23T23:25:30.314Z,65.21
2018-07-23T23:27:58.608Z,65.04
2018-07-23T23:30:26.865Z,64.92
2018-07-23T23:32:55.137Z,64.77
2018-07-23T23:35:23.381Z,64.36
2018-07-23T23:37:51.676Z,65.04
2018-07-23T23:40:19.945Z,64.59
2018-07-23T23:42:48.193Z,65.22
2018-07-23T23:45:16.473Z,65.55
2018-07-23T23:47:44.717Z,65.51
2018-07-23T23:50:12.989Z,65.66
2018-07-23T23:52:41.239Z,65.76
2018-07-23T23:55:09.529Z,66.27
2018-07-23T23:57:37.773Z,65.92
